createdAt,value
2022-12-11T00:00:12.674Z,39.3460
2022-12-11T00:01:14.972Z,39.2810
2022-12-11T00:02:17.317Z,39.2790
2022-12-11T00:03:19.671Z,39.2510
2022-12-11T00:04:19.777Z,39.2040
2022-12-11T00:05:22.086Z,39.2160
2022-12-11T00:06:24.412Z,39.2040
2022-12-11T00:07:26.741Z,39.2130
2022-12-11T00:08:29.117Z,39.2090
2022-12-11T00:09:31.365Z,39.2090
2022-12-11T00:10:36.243Z,39.1620
2022-12-11T00:11:33.765Z,39.1620
2022-12-11T00:12:36.110Z,39.1240
2022-12-11T00:13:38.423Z,39.1130
2022-12-11T00:14:40.730Z,39.0970
2022-12-11T00:15:43.047Z,39.0760
2022-12-11T00:16:43.279Z,39.1050
2022-12-11T00:17:45.468Z,39.0590
2022-12-11T00:18:47.813Z,39.1130
2022-12-11T00:19:50.110Z,38.9970
2022-12-11T00:20:52.378Z,39.0300
2022-12-11T00:21:54.626Z,39.0090
2022-12-11T00:22:56.900Z,39.0300
2022-12-11T00:23:57.066Z,39.0210
2022-12-11T00:24:57.213Z,39.0030
2022-12-11T00:25:59.523Z,38.9590
2022-12-11T00:27:01.898Z,38.9880
2022-12-11T00:28:04.271Z,38.9780
2022-12-11T00:29:04.635Z,38.9650
2022-12-11T00:30:06.892Z,38.8840
2022-12-11T00:31:09.272Z,38.9440
2022-12-11T00:32:11.659Z,38.8360
2022-12-11T00:33:11.860Z,38.8400
2022-12-11T00:34:14.189Z,38.8140
2022-12-11T00:35:16.483Z,38.7230
2022-12-11T00:36:18.812Z,38.7970
2022-12-11T00:37:21.177Z,38.7800
2022-12-11T00:38:23.448Z,38.7840
2022-12-11T00:39:23.828Z,38.7900
2022-12-11T00:40:25.997Z,38.7200
2022-12-11T00:41:28.348Z,38.7010
2022-12-11T00:42:30.673Z,38.7730
2022-12-11T00:43:32.983Z,38.7300
2022-12-11T00:44:35.267Z,38.6680
2022-12-11T00:45:35.474Z,38.5930
2022-12-11T00:46:37.744Z,38.6200
2022-12-11T00:47:40.103Z,38.5870
2022-12-11T00:48:42.442Z,38.6260
2022-12-11T00:49:49.542Z,38.6300
2022-12-11T00:50:44.990Z,38.6600
2022-12-11T00:51:47.347Z,38.6480
2022-12-11T00:52:49.695Z,38.5980
2022-12-11T00:53:52.055Z,38.6240
2022-12-11T00:54:54.413Z,38.5430
2022-12-11T00:55:54.556Z,38.5200
2022-12-11T00:56:56.898Z,38.4670
2022-12-11T00:57:59.271Z,38.4010
2022-12-11T00:59:01.632Z,38.4460
2022-12-11T01:00:03.989Z,38.4290
2022-12-11T01:01:04.696Z,38.4660
2022-12-11T01:02:06.544Z,38.4770
2022-12-11T01:03:08.936Z,38.4350
2022-12-11T01:04:11.200Z,38.3690
2022-12-11T01:05:11.855Z,38.4060
2022-12-11T01:06:13.719Z,38.3860
2022-12-11T01:07:16.048Z,38.3800
2022-12-11T01:08:18.439Z,38.4360
2022-12-11T01:09:20.697Z,38.3950
2022-12-11T01:10:23.111Z,38.3890
2022-12-11T01:11:23.180Z,38.3590
2022-12-11T01:12:25.458Z,38.3200
2022-12-11T01:13:27.760Z,38.2210
2022-12-11T01:14:30.089Z,38.2610
2022-12-11T01:15:32.534Z,38.2410
2022-12-11T01:16:34.776Z,38.2140
2022-12-11T01:17:34.949Z,38.2610
2022-12-11T01:18:37.318Z,38.1990
2022-12-11T01:19:39.671Z,38.1760
2022-12-11T01:20:42.099Z,38.2090
2022-12-11T01:21:44.412Z,38.1610
2022-12-11T01:22:44.623Z,38.1730
2022-12-11T01:23:46.969Z,38.1160
2022-12-11T01:24:49.337Z,38.1320
2022-12-11T01:25:51.707Z,38.1460
2022-12-11T01:26:53.964Z,38.0570
2022-12-11T01:27:54.148Z,38.0360
2022-12-11T01:28:56.512Z,38.0250
2022-12-11T01:29:58.871Z,38.0310
2022-12-11T01:31:01.324Z,38.1020
2022-12-11T01:32:03.658Z,38.0990
2022-12-11T01:33:03.920Z,38.0460
2022-12-11T01:34:06.289Z,38.0700
2022-12-11T01:35:09.019Z,38.1410
2022-12-11T01:36:11.203Z,38.0640
2022-12-11T01:37:11.329Z,38.0560
2022-12-11T01:39:37.711Z,38.0350
2022-12-11T01:40:40.005Z,37.9930
2022-12-11T01:41:42.376Z,37.9990
2022-12-11T01:42:44.678Z,37.9880
2022-12-11T01:43:44.814Z,37.9700
2022-12-11T01:44:47.117Z,38.0050
2022-12-11T01:45:49.501Z,37.9570
2022-12-11T01:46:51.872Z,37.8640
2022-12-11T01:47:54.063Z,37.9050
2022-12-11T01:48:56.385Z,37.8750
2022-12-11T01:49:56.547Z,37.8170
2022-12-11T01:50:58.868Z,37.8260
2022-12-11T01:52:01.196Z,37.8220
2022-12-11T01:53:03.518Z,37.8230
2022-12-11T01:54:05.861Z,37.8460
2022-12-11T01:55:08.585Z,37.8230
2022-12-11T01:56:08.305Z,37.8580
2022-12-11T01:57:10.593Z,37.7810
2022-12-11T01:58:12.894Z,37.7700
2022-12-11T01:59:15.174Z,37.7700
2022-12-11T02:00:17.463Z,37.7930
2022-12-11T02:01:19.865Z,37.7640
2022-12-11T02:02:20.114Z,37.8040
2022-12-11T02:03:22.457Z,37.6980
2022-12-11T02:04:24.838Z,37.6990
2022-12-11T02:05:27.220Z,37.7380
2022-12-11T02:06:27.461Z,37.7260
2022-12-11T02:07:29.876Z,37.7380
2022-12-11T02:08:32.203Z,37.7240
2022-12-11T02:09:34.567Z,37.7410
2022-12-11T02:10:36.907Z,37.6760
2022-12-11T02:11:37.037Z,37.6760
2022-12-11T02:12:39.416Z,37.6450
2022-12-11T02:13:41.731Z,37.6110
2022-12-11T02:14:44.011Z,37.6730
2022-12-11T02:15:46.320Z,37.6210
2022-12-11T02:16:46.568Z,37.5940
2022-12-11T02:17:49.023Z,37.5940
2022-12-11T02:18:51.247Z,37.5960
2022-12-11T02:19:53.545Z,37.6260
2022-12-11T02:20:55.842Z,37.6210
2022-12-11T02:21:56.039Z,37.5730
2022-12-11T02:22:58.371Z,37.5170
2022-12-11T02:24:00.650Z,37.5310
2022-12-11T02:25:02.990Z,37.5080
2022-12-11T02:26:05.308Z,37.4790
2022-12-11T02:27:07.676Z,37.4530
2022-12-11T02:28:07.912Z,37.4410
2022-12-11T02:29:10.273Z,37.4490
2022-12-11T02:30:12.609Z,37.4490
2022-12-11T02:31:15.064Z,37.4850
2022-12-11T02:32:17.301Z,37.4360
2022-12-11T02:33:17.567Z,37.4540
2022-12-11T02:34:19.745Z,37.5070
2022-12-11T02:35:22.105Z,37.4600
2022-12-11T02:36:24.456Z,37.4190
2022-12-11T02:37:26.822Z,37.3950
2022-12-11T02:38:27.064Z,37.3470
2022-12-11T02:39:29.370Z,37.3330
2022-12-11T02:40:31.706Z,37.2910
2022-12-11T02:41:34.058Z,37.3270
2022-12-11T02:42:36.401Z,37.2650
2022-12-11T02:43:36.602Z,37.3430
2022-12-11T02:44:38.856Z,37.3240
2022-12-11T02:45:41.146Z,37.2600
2022-12-11T02:46:43.465Z,37.3170
2022-12-11T02:47:44.656Z,37.4270
2022-12-11T02:48:47.061Z,37.5310
2022-12-11T02:49:49.251Z,37.6560
2022-12-11T02:50:51.599Z,37.6510
2022-12-11T02:51:53.921Z,37.6700
2022-12-11T02:52:56.253Z,37.5970
2022-12-11T02:53:58.631Z,37.6430
2022-12-11T02:55:00.956Z,37.6700
2022-12-11T02:56:03.310Z,37.7240
2022-12-11T02:57:03.473Z,37.7050
2022-12-11T02:58:05.820Z,37.6090
2022-12-11T02:59:08.191Z,37.6490
2022-12-11T03:00:10.545Z,37.6260
2022-12-11T03:01:12.971Z,37.5760
2022-12-11T03:02:15.350Z,37.6140
2022-12-11T03:03:15.523Z,37.6110
2022-12-11T03:04:17.992Z,37.5960
2022-12-11T03:05:20.352Z,37.5190
2022-12-11T03:06:22.773Z,37.5280
2022-12-11T03:07:25.160Z,37.5830
2022-12-11T03:08:25.512Z,37.5730
2022-12-11T03:09:27.857Z,37.5140
2022-12-11T03:10:30.221Z,37.4960
2022-12-11T03:11:30.427Z,37.4160
2022-12-11T03:12:32.821Z,37.4690
2022-12-11T03:13:35.163Z,37.5250
2022-12-11T03:14:35.412Z,37.4950
2022-12-11T03:15:37.781Z,37.5680
2022-12-11T03:16:40.172Z,37.6100
2022-12-11T03:17:40.335Z,37.6330
2022-12-11T03:18:42.706Z,37.5410
2022-12-11T03:19:45.054Z,37.5520
2022-12-11T03:20:45.235Z,37.5180
2022-12-11T03:21:47.583Z,37.4890
2022-12-11T03:22:49.894Z,37.4700
2022-12-11T03:23:50.074Z,37.4640
2022-12-11T03:24:52.456Z,37.4760
2022-12-11T03:25:54.797Z,37.4950
2022-12-11T03:26:58.452Z,37.5340
2022-12-11T03:27:59.502Z,37.4950
2022-12-11T03:29:01.854Z,37.4890
2022-12-11T03:30:02.054Z,37.4270
2022-12-11T03:31:04.549Z,37.4300
2022-12-11T03:32:06.713Z,37.4410
2022-12-11T03:33:09.082Z,37.3590
2022-12-11T03:34:11.401Z,37.3750
2022-12-11T03:35:14.160Z,37.3500
2022-12-11T03:36:13.951Z,37.3980
2022-12-11T03:37:16.314Z,37.3290
2022-12-11T03:38:18.666Z,37.3360
2022-12-11T03:39:18.889Z,37.3040
2022-12-11T03:40:21.379Z,37.2830
2022-12-11T03:41:23.629Z,37.3160
2022-12-11T03:42:25.964Z,37.2410
2022-12-11T03:43:28.329Z,37.2990
2022-12-11T03:44:30.678Z,37.2400
2022-12-11T03:45:30.967Z,37.2690
2022-12-11T03:46:33.368Z,37.2750
2022-12-11T03:47:35.715Z,37.2560
2022-12-11T03:48:35.962Z,37.2400
2022-12-11T03:49:38.353Z,37.2690
2022-12-11T03:50:40.841Z,37.2690
2022-12-11T03:51:40.965Z,37.2080
2022-12-11T03:52:45.941Z,37.1710
2022-12-11T03:53:45.818Z,37.1190
2022-12-11T03:54:48.246Z,37.1570
2022-12-11T03:55:50.657Z,37.1810
2022-12-11T03:56:50.870Z,37.1580
2022-12-11T03:57:53.281Z,37.1530
2022-12-11T03:58:55.720Z,37.2020
2022-12-11T03:59:58.122Z,37.1680
2022-12-11T04:01:00.644Z,37.1550
2022-12-11T04:02:00.879Z,37.1170
2022-12-11T04:03:06.895Z,37.0760
2022-12-11T04:04:05.689Z,37.1260
2022-12-11T04:05:08.319Z,37.0440
2022-12-11T04:06:10.513Z,37.0850
2022-12-11T04:07:10.731Z,37.0620
2022-12-11T04:08:13.271Z,37.0390
2022-12-11T04:09:15.549Z,37.0670
2022-12-11T04:10:17.958Z,37.0500
2022-12-11T04:11:20.348Z,37.0500
2022-12-11T04:12:20.535Z,37.0400
2022-12-11T04:13:22.934Z,37.0870
2022-12-11T04:14:25.336Z,36.9910
2022-12-11T04:15:25.588Z,36.9800
2022-12-11T04:16:28.018Z,37.0000
2022-12-11T04:17:30.391Z,36.9510
2022-12-11T04:18:30.621Z,36.9240
2022-12-11T04:19:33.027Z,36.9410
2022-12-11T04:20:35.405Z,36.9180
2022-12-11T04:21:39.627Z,36.9210
2022-12-11T04:22:40.194Z,36.9570
2022-12-11T04:23:40.430Z,36.8750
2022-12-11T04:24:42.835Z,36.8920
2022-12-11T04:25:45.225Z,36.9050
2022-12-11T04:26:45.492Z,36.9090
2022-12-11T04:27:47.867Z,36.8750
2022-12-11T04:28:50.286Z,36.8120
2022-12-11T04:29:52.660Z,36.8450
2022-12-11T04:30:55.140Z,36.7990
2022-12-11T04:31:55.444Z,36.8340
2022-12-11T04:32:57.723Z,36.8340
2022-12-11T04:34:00.108Z,36.7880
2022-12-11T04:35:00.389Z,36.7520
2022-12-11T04:36:02.791Z,36.7690
2022-12-11T04:37:05.239Z,36.7720
2022-12-11T04:38:07.591Z,36.7050
2022-12-11T04:39:09.996Z,36.6650
2022-12-11T04:40:10.206Z,36.7460
2022-12-11T04:41:12.570Z,36.7930
2022-12-11T04:42:14.919Z,36.7180
2022-12-11T04:43:15.169Z,36.7350
2022-12-11T04:44:17.578Z,36.7120
2022-12-11T04:45:19.965Z,36.7180
2022-12-11T04:46:20.248Z,36.6540
2022-12-11T04:47:22.595Z,36.6700
2022-12-11T04:48:25.000Z,36.6420
2022-12-11T04:49:27.353Z,36.6590
2022-12-11T04:50:29.752Z,36.6290
2022-12-11T04:51:30.025Z,36.6760
2022-12-11T04:52:32.472Z,36.6060
2022-12-11T04:53:34.888Z,36.5770
2022-12-11T04:54:35.168Z,36.5130
2022-12-11T04:55:37.562Z,36.6110
2022-12-11T04:56:37.877Z,36.5830
2022-12-11T04:57:40.353Z,36.5830
2022-12-11T04:58:42.787Z,36.5940
2022-12-11T04:59:43.078Z,36.5310
2022-12-11T05:00:45.497Z,36.5690
2022-12-11T05:01:48.035Z,36.5360
2022-12-11T05:02:50.478Z,36.5290
2022-12-11T05:03:52.791Z,36.5630
2022-12-11T05:04:53.001Z,36.5750
2022-12-11T05:05:55.406Z,36.5310
2022-12-11T05:06:57.825Z,36.5020
2022-12-11T05:08:00.298Z,36.4760
2022-12-11T05:09:02.584Z,36.4590
2022-12-11T05:10:02.827Z,36.4990
2022-12-11T05:11:05.182Z,36.5160
2022-12-11T05:12:07.577Z,36.5160
2022-12-11T05:13:07.859Z,36.5400
2022-12-11T05:14:10.215Z,36.4700
2022-12-11T05:15:12.916Z,36.4490
2022-12-11T05:16:12.876Z,36.4340
2022-12-11T05:17:15.231Z,36.4420
2022-12-11T05:18:17.660Z,36.4470
2022-12-11T05:19:20.121Z,36.3680
2022-12-11T05:20:22.402Z,36.4150
2022-12-11T05:21:22.639Z,36.3950
2022-12-11T05:22:24.975Z,36.4170
2022-12-11T05:23:27.367Z,36.3950
2022-12-11T05:24:27.564Z,36.3600
2022-12-11T05:25:29.947Z,36.3190
2022-12-11T05:26:32.327Z,36.3580
2022-12-11T05:27:32.535Z,36.3090
2022-12-11T05:28:34.870Z,36.2920
2022-12-11T05:29:37.219Z,36.2810
2022-12-11T05:30:39.568Z,36.2710
2022-12-11T05:31:42.015Z,36.3240
2022-12-11T05:32:44.356Z,36.3130
2022-12-11T05:33:44.631Z,36.2960
2022-12-11T05:34:47.041Z,36.3020
2022-12-11T05:35:49.416Z,36.2540
2022-12-11T05:36:51.809Z,36.3000
2022-12-11T05:37:54.203Z,36.3000
2022-12-11T05:38:54.464Z,36.2540
2022-12-11T05:39:56.837Z,36.1960
2022-12-11T05:40:59.230Z,36.1900
2022-12-11T05:41:59.501Z,36.1990
2022-12-11T05:43:01.893Z,36.2150
2022-12-11T05:44:04.336Z,36.2750
2022-12-11T05:45:06.688Z,36.3100
2022-12-11T05:46:09.210Z,36.3510
2022-12-11T05:47:09.333Z,36.3570
2022-12-11T05:48:11.724Z,36.2600
2022-12-11T05:49:14.112Z,36.1990
2022-12-11T05:50:14.374Z,36.2150
2022-12-11T05:51:16.741Z,36.2010
2022-12-11T05:52:19.110Z,36.2130
2022-12-11T05:53:19.332Z,36.1780
2022-12-11T05:54:21.824Z,36.2130
2022-12-11T05:55:24.129Z,36.2050
2022-12-11T05:56:26.533Z,36.1660
2022-12-11T05:57:28.911Z,36.1200
2022-12-11T05:58:29.165Z,36.2120
2022-12-11T05:59:31.613Z,35.6520
2022-12-11T06:00:36.190Z,36.1460
2022-12-11T06:01:34.334Z,36.2120
2022-12-11T06:02:37.305Z,36.1860
2022-12-11T06:03:39.172Z,36.0990
2022-12-11T06:04:41.646Z,36.0540
2022-12-11T06:05:44.113Z,36.0270
2022-12-11T06:06:46.555Z,36.0270
2022-12-11T06:07:49.034Z,36.0880
2022-12-11T06:08:51.490Z,36.1110
2022-12-11T06:09:53.996Z,36.1650
2022-12-11T06:10:56.412Z,36.1760
2022-12-11T06:11:58.876Z,36.1650
2022-12-11T06:12:59.196Z,36.2230
2022-12-11T06:14:01.648Z,36.2760
2022-12-11T06:15:02.014Z,36.3460
2022-12-11T06:16:04.513Z,36.5030
2022-12-11T06:17:06.817Z,36.5140
2022-12-11T06:18:07.085Z,36.5420
2022-12-11T06:19:09.501Z,36.6190
2022-12-11T06:20:11.959Z,36.6470
2022-12-11T06:21:14.382Z,36.6880
2022-12-11T06:22:16.815Z,36.7420
2022-12-11T06:23:19.273Z,36.7590
2022-12-11T06:24:21.706Z,36.8010
2022-12-11T06:25:22.017Z,36.8350
2022-12-11T06:26:24.424Z,36.8830
2022-12-11T06:27:26.830Z,36.9000
2022-12-11T06:28:29.279Z,36.9110
2022-12-11T06:29:31.736Z,36.9580
2022-12-11T06:30:38.672Z,37.0570
2022-12-11T06:31:36.630Z,37.1270
2022-12-11T06:32:36.784Z,37.1810
2022-12-11T06:33:39.187Z,37.1540
2022-12-11T06:34:41.572Z,37.2360
2022-12-11T06:35:42.572Z,37.3270
2022-12-11T06:36:44.280Z,37.3450
2022-12-11T06:37:46.614Z,37.3790
2022-12-11T06:38:48.997Z,37.4450
2022-12-11T06:39:51.393Z,37.4610
2022-12-11T06:40:51.663Z,37.5140
2022-12-11T06:41:54.046Z,37.5090
2022-12-11T06:42:56.392Z,37.4930
2022-12-11T06:43:56.613Z,37.5000
2022-12-11T06:44:59.005Z,37.4620
2022-12-11T06:46:03.999Z,37.4370
2022-12-11T06:47:01.683Z,37.4760
2022-12-11T06:48:04.093Z,37.4620
2022-12-11T06:49:06.419Z,37.4520
2022-12-11T06:50:08.747Z,37.4070
2022-12-11T06:51:11.154Z,37.3820
2022-12-11T06:52:18.182Z,37.3220
2022-12-11T06:53:15.849Z,37.3090
2022-12-11T06:54:18.215Z,37.2470
2022-12-11T06:55:18.403Z,37.2870
2022-12-11T06:56:20.790Z,37.2430
2022-12-11T06:57:23.128Z,37.3050
2022-12-11T06:58:23.360Z,37.2960
2022-12-11T06:59:25.753Z,37.2960
2022-12-11T07:00:28.076Z,37.3600
2022-12-11T07:01:28.380Z,37.4360
2022-12-11T07:02:30.721Z,37.5430
2022-12-11T07:03:33.052Z,37.5030
2022-12-11T07:04:33.310Z,37.3950
2022-12-11T07:05:35.669Z,37.3240
2022-12-11T07:06:38.086Z,37.2290
2022-12-11T07:07:38.264Z,37.0520
2022-12-11T07:08:40.584Z,36.9020
2022-12-11T07:09:42.902Z,36.7240
2022-12-11T07:10:45.279Z,36.6040
2022-12-11T07:11:47.614Z,36.5130
2022-12-11T07:12:49.944Z,36.5030
2022-12-11T07:13:52.228Z,36.5220
2022-12-11T07:14:54.542Z,36.5140
2022-12-11T07:15:56.897Z,36.4510
2022-12-11T07:16:57.205Z,36.4530
2022-12-11T07:17:59.414Z,36.6510
2022-12-11T07:19:01.746Z,36.6570
2022-12-11T07:20:04.102Z,36.6640
2022-12-11T07:21:06.437Z,36.6270
2022-12-11T07:22:08.815Z,36.5870
2022-12-11T07:23:09.050Z,36.7030
2022-12-11T07:24:11.398Z,36.6810
2022-12-11T07:25:13.960Z,36.7820
2022-12-11T07:26:16.061Z,36.8370
2022-12-11T07:27:18.439Z,36.7390
2022-12-11T07:28:20.783Z,36.7260
2022-12-11T07:29:21.006Z,36.7880
2022-12-11T07:30:23.368Z,36.7550
2022-12-11T07:31:25.790Z,36.6290
2022-12-11T07:32:26.153Z,36.6220
2022-12-11T07:33:28.292Z,36.6770
2022-12-11T07:34:30.584Z,36.6440
2022-12-11T07:35:32.946Z,36.6990
2022-12-11T07:36:35.295Z,36.6760
2022-12-11T07:37:37.637Z,36.4450
2022-12-11T07:38:39.942Z,36.4610
2022-12-11T07:40:31.813Z,36.5400
2022-12-11T07:41:34.117Z,36.3400
2022-12-11T07:42:34.308Z,36.1510
2022-12-11T07:43:35.548Z,36.0260
2022-12-11T07:43:36.688Z,36.0330
2022-12-11T07:45:37.160Z,35.9960
2022-12-11T07:46:37.328Z,36.0190
2022-12-11T07:47:38.539Z,35.7460
2022-12-11T07:48:39.943Z,35.8720
2022-12-11T07:49:42.293Z,35.9490
2022-12-11T07:50:42.465Z,35.7680
2022-12-11T07:51:44.833Z,35.6440
2022-12-11T07:52:47.211Z,35.4380
2022-12-11T07:53:49.633Z,35.5930
2022-12-11T07:54:51.977Z,35.6160
2022-12-11T07:55:52.174Z,35.5930
2022-12-11T07:56:54.555Z,35.5460
2022-12-11T07:57:56.855Z,35.4910
2022-12-11T07:58:59.219Z,35.3360
2022-12-11T08:00:01.525Z,35.3530
2022-12-11T08:01:01.765Z,35.3830
2022-12-11T08:02:04.121Z,35.2760
2022-12-11T08:03:38.935Z,35.2390
2022-12-11T08:04:41.259Z,35.3520
2022-12-11T08:05:41.291Z,35.4670
2022-12-11T08:06:42.457Z,35.5910
2022-12-11T08:07:43.866Z,35.6110
2022-12-11T08:08:47.316Z,35.6030
2022-12-11T08:09:48.416Z,35.6630
2022-12-11T08:10:48.522Z,35.7030
2022-12-11T08:11:50.832Z,35.7380
2022-12-11T08:13:23.831Z,35.8910
2022-12-11T08:14:25.691Z,35.8280
2022-12-11T08:15:28.031Z,35.7790
2022-12-11T08:16:30.398Z,35.7850
2022-12-11T08:17:35.158Z,35.7690
2022-12-11T08:18:32.909Z,35.8330
2022-12-11T08:19:35.195Z,35.8300
2022-12-11T08:20:37.589Z,35.7330
2022-12-11T08:21:39.892Z,35.7730
2022-12-11T08:22:40.120Z,35.7510
2022-12-11T08:23:42.502Z,35.7480
2022-12-11T08:24:44.898Z,35.7390
2022-12-11T08:25:47.277Z,35.6980
2022-12-11T08:26:47.415Z,35.7650
2022-12-11T08:27:49.784Z,35.7280
2022-12-11T08:28:52.067Z,35.8010
2022-12-11T08:29:54.419Z,35.7510
2022-12-11T08:30:56.871Z,35.7280
2022-12-11T08:31:59.153Z,35.7170
2022-12-11T08:32:59.447Z,35.7220
2022-12-11T08:34:01.848Z,35.8240
2022-12-11T08:35:04.200Z,35.8270
2022-12-11T08:36:06.608Z,35.8020
2022-12-11T08:37:06.795Z,35.8440
2022-12-11T08:38:09.203Z,35.8670
2022-12-11T08:39:11.548Z,35.8440
2022-12-11T08:40:13.965Z,35.8600
2022-12-11T08:41:16.605Z,35.8020
2022-12-11T08:42:16.610Z,35.8280
2022-12-11T08:43:19.016Z,35.7690
2022-12-11T08:44:21.368Z,35.7890
2022-12-11T08:45:21.623Z,35.7910
2022-12-11T08:46:24.057Z,34.8320
2022-12-11T08:47:26.346Z,34.8740
2022-12-11T08:48:28.698Z,35.0480
2022-12-11T08:49:34.368Z,35.2560
2022-12-11T08:50:33.496Z,35.3950
2022-12-11T08:51:35.957Z,35.4910
2022-12-11T08:52:38.413Z,35.3610
2022-12-11T08:53:40.742Z,35.3460
2022-12-11T08:54:42.007Z,35.3340
2022-12-11T16:28:18.232Z,34.0860
2022-12-11T16:29:20.383Z,34.0380
2022-12-11T16:30:22.622Z,33.4740
2022-12-11T16:31:24.963Z,33.6270
2022-12-11T16:32:27.107Z,33.7230
2022-12-11T16:33:29.405Z,33.8490
2022-12-11T16:34:31.692Z,34.0380
2022-12-11T16:35:33.982Z,34.0260
2022-12-11T16:36:34.153Z,33.8750
2022-12-11T16:37:36.455Z,34.0540
2022-12-11T16:38:39.471Z,34.0100
2022-12-11T16:39:41.049Z,33.9160
2022-12-11T16:40:43.364Z,34.1960
2022-12-11T16:41:43.519Z,34.1570
2022-12-11T16:42:45.853Z,34.0780
2022-12-11T16:43:48.272Z,34.0950
2022-12-11T16:44:50.573Z,34.1010
2022-12-11T16:45:50.739Z,34.4070
2022-12-11T16:46:53.026Z,34.3830
2022-12-11T16:47:55.299Z,34.3880
2022-12-11T16:48:57.588Z,34.3920
2022-12-11T16:49:59.889Z,34.4280
2022-12-11T16:51:02.215Z,34.3550
2022-12-11T16:52:04.498Z,34.3750
2022-12-11T16:53:04.791Z,34.3140
2022-12-11T16:54:07.099Z,34.3320
2022-12-11T16:55:09.563Z,34.2760
2022-12-11T16:56:11.748Z,34.1960
2022-12-11T16:57:14.112Z,34.3750
2022-12-11T16:58:14.301Z,34.3950
2022-12-11T16:59:16.723Z,34.3100
2022-12-11T17:00:19.005Z,34.2090
2022-12-11T17:01:21.385Z,34.0890
2022-12-11T17:02:23.740Z,34.2170
2022-12-11T17:03:23.889Z,34.2320
2022-12-11T17:04:26.241Z,34.2330
2022-12-11T17:05:28.451Z,34.0260
2022-12-11T17:06:30.732Z,34.0610
2022-12-11T17:07:32.979Z,34.0360
2022-12-11T17:08:35.264Z,34.1340
2022-12-11T17:09:35.430Z,33.9980
2022-12-11T17:10:37.674Z,34.3320
2022-12-11T17:11:39.967Z,33.9620
2022-12-11T17:12:42.262Z,34.2750
2022-12-11T17:13:44.590Z,34.2510
2022-12-11T17:14:46.943Z,34.1560
2022-12-11T17:15:49.307Z,34.3320
2022-12-11T17:16:49.420Z,34.4460
2022-12-11T17:17:51.740Z,34.5400
2022-12-11T17:18:54.036Z,34.4650
2022-12-11T17:19:56.374Z,34.6170
2022-12-11T17:20:58.634Z,34.6700
2022-12-11T17:22:00.938Z,34.5660
2022-12-11T17:23:01.092Z,34.5750
2022-12-11T17:24:03.400Z,34.8080
2022-12-11T17:25:05.702Z,34.7650
2022-12-11T17:26:07.964Z,34.9100
2022-12-11T17:27:10.270Z,34.9450
2022-12-11T17:28:12.599Z,34.9140
2022-12-11T17:29:12.742Z,34.9840
2022-12-11T17:30:15.089Z,35.0380
2022-12-11T17:31:17.451Z,35.1110
2022-12-11T17:32:19.705Z,35.1130
2022-12-11T17:33:22.027Z,35.1390
2022-12-11T17:34:24.343Z,35.2160
2022-12-11T17:35:24.561Z,35.1980
2022-12-11T17:36:26.791Z,35.2320
2022-12-11T17:37:31.247Z,35.2930
2022-12-11T17:37:39.856Z,35.2990
2022-12-11T17:38:42.095Z,35.3050
2022-12-11T17:39:44.377Z,35.3370
2022-12-11T17:40:44.541Z,35.2890
2022-12-11T17:41:46.752Z,35.3270
2022-12-11T17:42:48.989Z,35.3780
2022-12-11T17:43:40.548Z,35.3740
2022-12-11T17:44:42.793Z,35.3690
2022-12-11T17:45:45.061Z,35.4180
2022-12-11T17:46:47.349Z,35.4450
2022-12-11T17:47:49.577Z,35.4500
2022-12-11T17:48:49.714Z,35.4620
2022-12-11T17:49:52.016Z,35.5100
2022-12-11T17:50:54.309Z,35.4680
2022-12-11T17:51:56.626Z,35.4930
2022-12-11T17:52:58.842Z,35.4620
2022-12-11T17:54:01.155Z,35.5040
2022-12-11T17:55:03.475Z,35.5150
2022-12-11T17:56:03.730Z,35.5100
2022-12-11T17:57:05.958Z,35.5700
2022-12-11T17:58:08.245Z,35.5760
2022-12-11T17:59:10.546Z,35.5820
2022-12-11T18:00:12.852Z,35.6060
2022-12-11T18:01:15.232Z,35.6290
2022-12-11T18:02:17.515Z,35.6480
2022-12-11T18:03:17.543Z,35.6880
2022-12-11T18:04:19.725Z,35.6710
2022-12-11T18:05:22.007Z,35.7200
2022-12-11T18:06:24.305Z,35.6880
2022-12-11T18:07:26.657Z,35.7210
2022-12-11T18:08:28.987Z,35.7290
2022-12-11T18:10:37.928Z,35.8430
2022-12-11T18:11:40.140Z,35.8320
2022-12-11T18:12:40.340Z,35.8710
2022-12-11T18:13:42.637Z,35.9230
2022-12-11T18:14:44.980Z,35.9230
2022-12-11T18:15:47.358Z,35.9700
2022-12-11T18:16:49.663Z,35.9930
2022-12-11T18:17:51.988Z,36.0620
2022-12-11T18:18:52.161Z,36.0750
2022-12-11T18:19:54.599Z,36.0790
2022-12-11T18:20:56.650Z,36.1260
2022-12-11T18:21:58.913Z,36.1600
2022-12-11T18:22:59.097Z,36.1810
2022-12-11T18:23:59.291Z,36.2230
2022-12-11T18:25:05.048Z,36.2580
2022-12-11T18:26:03.910Z,36.2650
2022-12-11T18:27:06.234Z,36.2700
2022-12-11T18:28:08.521Z,36.2590
2022-12-11T18:29:10.842Z,36.2530
2022-12-11T18:30:11.018Z,36.2650
2022-12-11T18:31:13.436Z,36.2580
2022-12-11T18:32:15.721Z,36.2950
2022-12-11T18:33:18.052Z,36.2750
2022-12-11T18:34:20.369Z,35.9530
2022-12-11T18:35:22.689Z,36.0140
2022-12-11T18:36:22.819Z,36.1890
2022-12-11T18:37:28.162Z,36.2420
2022-12-11T18:38:27.478Z,36.2730
2022-12-11T18:39:29.810Z,36.2790
2022-12-11T18:40:32.124Z,36.2310
2022-12-11T18:41:34.484Z,36.2300
2022-12-11T18:42:34.693Z,36.2120
2022-12-11T18:43:37.067Z,36.2110
2022-12-11T18:44:39.408Z,36.1640
2022-12-11T18:45:41.757Z,36.1370
2022-12-11T18:46:44.184Z,36.1770
2022-12-11T18:47:44.281Z,36.1450
2022-12-11T18:48:46.690Z,36.0810
2022-12-11T18:49:48.913Z,35.9920
2022-12-11T18:50:51.207Z,35.9950
2022-12-11T18:51:53.511Z,35.9560
2022-12-11T18:52:53.675Z,36.0480
2022-12-11T18:53:56.012Z,36.1620
2022-12-11T18:54:58.285Z,36.0900
2022-12-11T18:56:00.908Z,36.2120
2022-12-11T18:57:02.832Z,36.2320
2022-12-11T18:58:05.130Z,36.2720
2022-12-11T18:59:05.305Z,36.3560
2022-12-11T19:00:07.675Z,36.2420
2022-12-11T19:01:09.957Z,36.1160
2022-12-11T19:02:12.288Z,36.2180
2022-12-11T19:03:14.485Z,36.2130
2022-12-11T19:04:16.842Z,36.5230
2022-12-11T19:05:19.076Z,36.8750
2022-12-11T19:06:19.195Z,37.0060
2022-12-11T19:07:21.513Z,37.1090
2022-12-11T19:08:23.864Z,37.1280
2022-12-11T19:09:26.144Z,37.2540
2022-12-11T19:10:28.423Z,37.4270
2022-12-11T19:11:30.702Z,37.5780
2022-12-11T19:12:32.989Z,37.6460
2022-12-11T19:13:33.147Z,37.6880
2022-12-11T19:14:35.462Z,37.6660
2022-12-11T19:15:37.762Z,37.7090
2022-12-11T19:16:40.197Z,37.7690
2022-12-11T19:17:42.345Z,37.8690
2022-12-11T19:18:44.635Z,37.9940
2022-12-11T19:19:44.833Z,37.9610
2022-12-11T19:20:50.922Z,37.9230
2022-12-11T19:21:47.205Z,38.0480
2022-12-11T19:22:49.510Z,38.0420
2022-12-11T19:23:51.835Z,38.0000
2022-12-11T19:24:52.040Z,37.9490
2022-12-11T19:25:54.332Z,37.9190
2022-12-11T19:26:56.672Z,37.9700
2022-12-11T19:27:58.994Z,37.9650
2022-12-11T19:29:01.365Z,38.0310
2022-12-11T19:30:01.611Z,38.0690
2022-12-11T19:31:04.074Z,38.1100
2022-12-11T19:32:06.253Z,37.9590
2022-12-11T19:33:08.576Z,37.9830
2022-12-11T19:34:10.926Z,37.9530
2022-12-11T19:35:11.614Z,37.9870
2022-12-11T19:36:13.465Z,38.0160
2022-12-11T19:37:15.846Z,37.9940
2022-12-11T19:38:18.202Z,37.9830
2022-12-11T19:39:18.402Z,37.9850
2022-12-11T19:40:20.806Z,38.0210
2022-12-11T19:41:23.118Z,38.0280
2022-12-11T19:42:25.421Z,37.9460
2022-12-11T19:43:27.749Z,38.0400
2022-12-11T19:44:27.929Z,37.9720
2022-12-11T19:45:30.402Z,37.9620
2022-12-11T19:46:32.703Z,37.9200
2022-12-11T19:47:34.978Z,37.9280
2022-12-11T19:48:37.325Z,37.9310
2022-12-11T19:49:37.519Z,37.9130
2022-12-11T19:50:39.893Z,37.8590
2022-12-11T19:51:42.166Z,37.7970
2022-12-11T19:52:46.278Z,37.6730
2022-12-11T19:53:46.521Z,37.6710
2022-12-11T19:54:48.693Z,36.9710
2022-12-11T19:55:50.950Z,36.3130
2022-12-11T19:56:53.086Z,36.5310
2022-12-11T19:57:55.298Z,37.0680
2022-12-11T19:58:57.491Z,35.7470
2022-12-11T19:59:59.800Z,36.6210
2022-12-11T20:00:59.988Z,36.6250
2022-12-11T20:02:02.213Z,36.7040
2022-12-11T20:03:04.484Z,36.6130
2022-12-11T20:04:06.748Z,36.5090